Time;durP1;ratioP1;P1;durP2;ratioP2;P2;SDS_P1;SDS_P2;PMS_P1;PMS_P2;Temp;Humidity;BMP_temperature;BMP_pressure;BME280_temperature;BME280_humidity;BME280_pressure;Samples;Min_cycle;Max_cycle;Signal;HPM_P1;HPM_P2
2024/03/08 00:00:09;;;;;;;;;49.40;36.20;;;;;9.85;55.85;100913.97;2020769;28;3625202;-66
2024/03/08 00:01:19;;;;;;;;;48.50;36.50;;;;;9.82;56.10;100920.16;1978865;28;2847144;-66
2024/03/08 00:02:31;;;;;;;;;45.60;35.60;;;;;9.79;55.95;100912.34;1996260;28;3587692;-66
2024/03/08 00:03:43;;;;;;;;;45.33;34.67;;;;;9.78;56.34;100913.25;2017863;28;3592940;-66
2024/03/08 00:04:55;;;;;;;;;46.80;36.40;;;;;9.78;56.08;100910.63;1996850;28;3610604;-66
2024/03/08 00:06:07;;;;;;;;;47.60;36.60;;;;;9.78;56.04;100916.75;1996068;28;3596076;-66
2024/03/08 00:07:19;;;;;;;;;51.20;37.60;;;;;9.76;55.95;100907.19;1997402;28;3598573;-66
2024/03/08 00:08:32;;;;;;;;;42.86;34.00;;;;;9.77;55.95;100920.28;1992889;28;3604395;-66
2024/03/08 00:09:44;;;;;;;;;45.67;33.67;;;;;9.75;56.08;100913.34;1993560;28;3598140;-66
2024/03/08 00:10:56;;;;;;;;;46.40;35.00;;;;;9.73;56.16;100915.16;2021413;28;3588755;-66
2024/03/08 00:12:08;;;;;;;;;48.60;37.40;;;;;9.72;56.27;100905.53;1992494;28;3605915;-66
2024/03/08 00:13:20;;;;;;;;;46.00;36.33;;;;;9.70;55.92;100907.34;1973060;28;3596091;-66
2024/03/08 00:14:33;;;;;;;;;49.00;37.00;;;;;9.68;56.11;100905.63;1992718;28;3611697;-66
2024/03/08 00:15:44;;;;;;;;;44.33;34.33;;;;;9.70;56.32;100904.72;1977360;28;3598167;-66
2024/03/08 00:16:56;;;;;;;;;50.20;37.80;;;;;9.66;55.94;100896.94;1995299;28;3625198;-66
2024/03/08 00:18:08;;;;;;;;;48.00;38.80;;;;;9.66;56.47;100901.31;1992068;28;3609582;-66
2024/03/08 00:19:20;;;;;;;;;46.20;33.80;;;;;9.65;56.33;100905.72;1980889;28;3595511;-66
2024/03/08 00:20:31;;;;;;;;;38.20;31.40;;;;;9.64;56.31;100903.13;1972636;28;2867938;-66
2024/03/08 00:21:43;;;;;;;;;50.20;39.80;;;;;9.66;56.18;100919.69;2012483;28;3606441;-66
2024/03/08 00:22:57;;;;;;;;;47.14;36.14;;;;;9.64;56.18;100901.38;2010122;28;3612761;-66
2024/03/08 00:24:08;;;;;;;;;45.50;34.50;;;;;9.61;56.41;100892.69;1970409;28;2858610;-66
2024/03/08 00:25:20;;;;;;;;;47.80;36.60;;;;;9.61;56.04;100897.94;1994203;28;3603372;-66
2024/03/08 00:26:33;;;;;;;;;41.20;34.20;;;;;9.58;56.47;100898.88;2018350;28;3606556;-66
2024/03/08 00:27:43;;;;;;;;;43.00;35.00;;;;;9.59;56.51;100892.75;1980225;28;2852387;-66
2024/03/08 00:28:55;;;;;;;;;50.67;39.33;;;;;9.58;56.55;100901.50;1990602;28;3604428;-66
2024/03/08 00:30:08;;;;;;;;;40.40;33.80;;;;;9.57;56.38;100886.69;1992100;28;3593970;-66
2024/03/08 00:31:18;;;;;;;;;51.00;38.00;;;;;9.56;56.25;100891.06;2002940;28;2861718;-66
2024/03/08 00:32:31;;;;;;;;;47.80;36.00;;;;;9.55;56.45;100886.75;1997536;28;3613772;-66
2024/03/08 00:33:43;;;;;;;;;45.33;34.67;;;;;9.55;56.44;100894.59;1971292;28;3587724;-66
2024/03/08 00:34:54;;;;;;;;;44.20;34.20;;;;;9.53;56.31;100882.44;2016511;28;3582488;-66
2024/03/08 00:36:07;;;;;;;;;48.00;36.20;;;;;9.52;56.55;100876.31;1989820;28;3596065;-66
2024/03/08 00:37:18;;;;;;;;;45.00;33.00;;;;;9.50;56.36;100874.63;1974595;28;2867937;-66
2024/03/08 00:38:30;;;;;;;;;43.33;35.33;;;;;9.50;56.69;100874.63;1989853;28;3594045;-66
2024/03/08 00:39:42;;;;;;;;;41.20;33.80;;;;;9.49;56.71;100879.00;1995995;28;3607475;-66
2024/03/08 00:40:54;;;;;;;;;55.00;40.40;;;;;9.48;56.38;100868.56;1999576;28;3606461;-66
2024/03/08 00:42:06;;;;;;;;;49.00;35.80;;;;;9.47;56.94;100872.06;1992690;28;3630409;-66
2024/03/08 00:43:17;;;;;;;;;29.67;28.33;;;;;9.47;56.73;100867.69;1959968;28;3591898;-66
2024/03/08 00:44:29;;;;;;;;;45.60;36.40;;;;;9.45;56.96;100878.25;2006253;28;3597086;-66
2024/03/08 00:45:42;;;;;;;;;49.67;36.67;;;;;9.47;56.85;100874.69;1993440;28;3616887;-66
2024/03/08 00:46:54;;;;;;;;;47.67;34.00;;;;;9.44;56.92;100866.00;1973531;28;3623139;-66
2024/03/08 00:48:06;;;;;;;;;45.67;36.00;;;;;9.47;57.22;100874.69;1990338;28;3570025;-66
2024/03/08 00:49:17;;;;;;;;;46.00;36.67;;;;;9.43;56.89;100861.66;2007762;28;3579426;-66
2024/03/08 00:50:29;;;;;;;;;47.40;36.20;;;;;9.42;56.79;100862.56;2018586;28;3591875;-66
2024/03/08 00:51:41;;;;;;;;;51.40;38.80;;;;;9.39;56.86;100851.28;1992738;28;3615121;-66
2024/03/08 00:52:53;;;;;;;;;46.40;34.00;;;;;9.40;57.19;100864.38;1995930;28;3601253;-66
2024/03/08 00:54:04;;;;;;;;;48.00;38.00;;;;;9.39;57.27;100851.28;1966591;28;2863820;-66
2024/03/08 00:55:17;;;;;;;;;42.86;34.43;;;;;9.40;57.05;100859.13;1986647;28;3591282;-66
2024/03/08 00:56:29;;;;;;;;;44.80;31.20;;;;;9.37;57.04;100853.97;1991125;28;3630406;-66
2024/03/08 00:57:41;;;;;;;;;39.80;34.80;;;;;9.36;57.16;100849.59;1998143;28;3597052;-66
2024/03/08 00:58:53;;;;;;;;;35.80;29.40;;;;;9.34;57.04;100848.78;1998623;28;3572065;-66
2024/03/08 01:00:09;;;;;;;;;47.80;36.60;;;;;9.32;56.92;100846.22;2015940;28;3605392;-66
2024/03/08 01:01:19;;;;;;;;;49.00;37.00;;;;;9.30;56.74;100852.41;1976039;28;2870120;-66
2024/03/08 01:02:33;;;;;;;;;46.33;36.67;;;;;9.26;57.02;100835.03;1990343;28;3611701;-66
2024/03/08 01:03:43;;;;;;;;;47.50;38.00;;;;;9.26;57.15;100841.09;1976697;28;2866907;-66
2024/03/08 01:04:55;;;;;;;;;52.20;37.80;;;;;9.22;57.14;100835.09;1994762;28;3629358;-66
2024/03/08 01:06:08;;;;;;;;;50.40;37.80;;;;;9.25;57.49;100843.78;1995673;28;3612042;-66
2024/03/08 01:07:19;;;;;;;;;46.33;36.00;;;;;9.25;57.34;100843.78;1984664;28;3592964;-66
2024/03/08 01:08:31;;;;;;;;;50.40;38.20;;;;;9.24;57.30;100837.66;1992441;28;3612718;-66
2024/03/08 01:09:44;;;;;;;;;44.14;34.00;;;;;9.21;57.70;100827.28;1993240;28;3607510;-66
2024/03/08 01:10:56;;;;;;;;;39.20;34.40;;;;;9.22;57.53;100829.84;1992955;28;3598650;-66
2024/03/08 01:12:08;;;;;;;;;47.60;38.60;;;;;9.21;57.49;100833.34;1995856;28;3589802;-66
2024/03/08 01:13:21;;;;;;;;;41.50;35.00;;;;;9.21;57.22;100838.59;1976179;28;2861680;-66
2024/03/08 01:14:33;;;;;;;;;42.00;36.20;;;;;9.19;57.52;100829.91;1985638;28;3593019;-66
2024/03/08 01:15:45;;;;;;;;;47.80;36.20;;;;;9.19;57.24;100829.06;1979717;28;3601576;-66
2024/03/08 01:16:56;;;;;;;;;46.00;36.00;;;;;9.17;57.63;100830.84;1970648;28;2854401;-66
2024/03/08 01:18:08;;;;;;;;;48.00;35.33;;;;;9.18;57.89;100832.59;1989960;28;3606548;-66
2024/03/08 01:19:20;;;;;;;;;51.00;39.80;;;;;9.14;57.26;100821.31;1993577;28;3610639;-66
2024/03/08 01:20:32;;;;;;;;;48.20;37.40;;;;;9.13;57.96;100813.50;1989816;28;3586647;-66
2024/03/08 01:21:44;;;;;;;;;47.00;37.00;;;;;9.14;57.84;100816.06;2014880;28;3576278;-66
2024/03/08 01:22:56;;;;;;;;;50.00;38.80;;;;;9.14;57.81;100815.19;2019203;28;3589772;-66
2024/03/08 01:24:08;;;;;;;;;39.60;35.20;;;;;9.13;57.90;100814.34;1998681;28;3596104;-66
2024/03/08 01:25:19;;;;;;;;;45.40;37.20;;;;;9.13;57.67;100814.34;1990005;28;3599178;-66
2024/03/08 01:26:32;;;;;;;;;43.20;33.80;;;;;9.09;57.54;100807.44;1991759;28;3598138;-66
2024/03/08 01:27:43;;;;;;;;;47.40;36.40;;;;;9.11;58.10;100811.75;1981264;28;3600214;-66
2024/03/08 01:28:55;;;;;;;;;37.80;33.80;;;;;9.09;57.72;100808.31;1989092;28;3610595;-66
2024/03/08 01:30:09;;;;;;;;;48.40;38.20;;;;;9.10;58.06;100810.06;1993454;28;3600203;-66
2024/03/08 01:31:19;;;;;;;;;38.50;34.00;;;;;9.05;57.94;100795.31;1977165;28;2873173;-66
2024/03/08 01:32:32;;;;;;;;;50.80;40.40;;;;;9.05;57.90;100798.81;1997122;28;3603371;-66
2024/03/08 01:33:43;;;;;;;;;50.80;40.00;;;;;9.05;57.65;100800.56;1986527;28;3611645;-66
2024/03/08 01:34:55;;;;;;;;;48.60;36.60;;;;;9.07;57.90;100804.00;1993641;28;3583537;-66
2024/03/08 01:36:08;;;;;;;;;55.40;40.60;;;;;9.05;57.84;100798.81;2020243;28;3644023;-66
2024/03/08 01:37:19;;;;;;;;;46.33;34.33;;;;;9.05;57.82;100801.44;1980558;28;3587193;-66
2024/03/08 01:38:31;;;;;;;;;52.00;39.33;;;;;9.03;58.05;100803.25;1988265;28;3617950;-66
2024/03/08 01:39:43;;;;;;;;;48.20;37.00;;;;;9.03;58.33;100797.13;1993319;28;3597062;-66
2024/03/08 01:40:55;;;;;;;;;45.00;38.00;;;;;9.03;57.96;100799.75;1992068;28;3591879;-66
2024/03/08 01:42:06;;;;;;;;;50.50;37.50;;;;;9.02;57.92;100791.03;1971579;28;2867976;-66
2024/03/08 01:43:26;;;;;;;;;50.00;39.33;;;;;9.00;58.19;100795.44;1986743;28;3590837;-66
2024/03/08 01:44:37;;;;;;;;;47.50;37.50;;;;;8.98;58.11;100785.00;1997525;28;2857561;-66
2024/03/08 01:45:49;;;;;;;;;45.20;34.40;;;;;8.96;58.41;100781.53;1994379;28;3591875;-66
2024/03/08 01:47:01;;;;;;;;;42.67;35.67;;;;;8.98;58.59;100781.53;2007383;28;3584634;-66
2024/03/08 01:48:14;;;;;;;;;42.00;34.60;;;;;8.97;57.62;100778.03;2003846;28;3592899;-66
2024/03/08 01:49:26;;;;;;;;;48.00;39.00;;;;;8.97;58.09;100778.03;1969134;28;2859585;-66
2024/03/08 01:50:37;;;;;;;;;43.00;37.00;;;;;8.97;58.26;100777.16;1970381;28;2852405;-66
2024/03/08 01:51:49;;;;;;;;;48.80;37.40;;;;;8.95;58.35;100776.34;1988489;28;3592948;-66
2024/03/08 01:53:02;;;;;;;;;39.33;31.67;;;;;8.93;58.10;100770.28;1970225;28;3583587;-66
2024/03/08 01:54:15;;;;;;;;;43.00;36.50;;;;;8.95;58.38;100779.84;2000291;28;2847129;-66
2024/03/08 01:55:26;;;;;;;;;44.33;34.67;;;;;8.92;58.76;100774.66;1975762;28;3614841;-66
2024/03/08 01:56:39;;;;;;;;;51.00;40.40;;;;;8.93;58.36;100776.41;1997613;28;3599162;-66
2024/03/08 01:57:49;;;;;;;;;49.50;37.00;;;;;8.89;58.11;100770.34;1978012;28;2879399;-66
2024/03/08 01:59:01;;;;;;;;;42.60;32.80;;;;;8.89;58.28;100769.50;1979692;28;2881697;-66
2024/03/08 02:00:13;;;;;;;;;57.00;43.60;;;;;8.85;57.89;100767.84;2005577;28;3626224;-66
2024/03/08 02:01:24;;;;;;;;;35.00;32.00;;;;;8.87;58.18;100773.91;1999781;28;2855418;-66
2024/03/08 02:02:37;;;;;;;;;47.00;35.00;;;;;8.81;58.31;100767.09;1975600;28;2853343;-66
2024/03/08 02:03:47;;;;;;;;;44.00;33.00;;;;;8.83;58.71;100767.03;1971765;28;2855494;-66
2024/03/08 02:05:01;;;;;;;;;46.00;37.00;;;;;8.80;58.67;100759.25;1978007;28;3586697;-66
2024/03/08 02:06:14;;;;;;;;;36.50;31.50;;;;;8.81;58.61;100766.22;1970598;28;2847116;-66
2024/03/08 02:07:26;;;;;;;;;50.00;38.00;;;;;8.77;58.30;100761.06;1972355;28;3607869;-66
2024/03/08 02:08:37;;;;;;;;;50.50;37.00;;;;;8.76;58.70;100754.09;1975460;28;2867964;-66
2024/03/08 02:09:48;;;;;;;;;51.00;37.60;;;;;8.75;58.44;100749.75;1979024;28;3625290;-66
2024/03/08 02:11:02;;;;;;;;;52.33;38.67;;;;;8.71;58.54;100748.13;1989390;28;3616917;-66
2024/03/08 02:12:13;;;;;;;;;51.50;40.00;;;;;8.73;58.77;100745.44;1978314;28;2866939;-66
2024/03/08 02:13:25;;;;;;;;;52.33;41.00;;;;;8.73;59.02;100743.69;1974532;28;3611115;-66
2024/03/08 02:14:37;;;;;;;;;48.20;39.80;;;;;8.71;58.67;100742.88;1997330;28;3604351;-66
2024/03/08 02:15:53;;;;;;;;;45.40;35.20;;;;;8.71;58.50;100740.25;1997572;28;3598112;-66
2024/03/08 02:17:04;;;;;;;;;39.50;35.00;;;;;8.62;58.70;100724.75;1975468;28;2837749;-66
2024/03/08 02:18:16;;;;;;;;;48.00;37.00;;;;;8.67;58.91;100735.97;1978253;28;2852308;-66
2024/03/08 02:19:27;;;;;;;;;44.50;35.00;;;;;8.68;58.50;100735.09;1978478;28;2852667;-66
2024/03/08 02:20:39;;;;;;;;;47.80;39.20;;;;;8.66;58.95;100739.50;1992481;28;3592941;-66
2024/03/08 02:21:51;;;;;;;;;51.00;38.20;;;;;8.61;58.82;100729.13;1996172;28;3609594;-66
2024/03/08 02:23:05;;;;;;;;;35.57;28.00;;;;;8.62;59.12;100735.22;2011746;28;2849177;-66
2024/03/08 02:24:15;;;;;;;;;44.00;35.00;;;;;8.61;58.63;100734.38;2002185;28;2843961;-66
2024/03/08 02:25:28;;;;;;;;;47.20;37.40;;;;;8.61;58.91;100730.91;2000330;28;3606434;-66
2024/03/08 02:26:39;;;;;;;;;46.80;35.00;;;;;8.59;58.92;100720.47;1973648;28;3586671;-66
2024/03/08 02:27:51;;;;;;;;;51.00;38.40;;;;;8.57;59.35;100716.97;2021064;28;3604426;-66
2024/03/08 02:29:04;;;;;;;;;51.80;38.40;;;;;8.56;59.35;100715.25;2000158;28;3612704;-66
2024/03/08 02:30:17;;;;;;;;;49.33;38.00;;;;;8.58;59.13;100709.97;1973511;28;3611062;-66
2024/03/08 02:31:27;;;;;;;;;56.50;41.50;;;;;8.60;59.08;100710.81;1976318;28;2884744;-66
2024/03/08 02:32:39;;;;;;;;;44.00;35.80;;;;;8.57;59.43;100706.47;1995964;28;3592956;-66
2024/03/08 02:33:51;;;;;;;;;48.40;37.60;;;;;8.58;59.57;100707.34;2023009;28;3600204;-66
2024/03/08 02:35:06;;;;;;;;;50.40;36.40;;;;;8.61;59.51;100707.31;1999147;28;3605388;-66
2024/03/08 02:36:16;;;;;;;;;51.50;37.00;;;;;8.60;59.34;100705.56;1980870;28;2860634;-66
2024/03/08 02:37:28;;;;;;;;;47.60;34.20;;;;;8.60;59.47;100708.19;1999023;28;3605414;-66
2024/03/08 02:38:41;;;;;;;;;51.00;36.20;;;;;8.57;59.22;100703.88;1989070;28;3624160;-66
2024/03/08 02:39:52;;;;;;;;;51.00;38.00;;;;;8.60;59.68;100700.34;1971626;28;2866932;-66
2024/03/08 02:41:04;;;;;;;;;50.00;37.00;;;;;8.55;59.04;100696.06;1999248;28;3605406;-66
2024/03/08 02:42:16;;;;;;;;;51.60;39.60;;;;;8.57;59.21;100698.63;1992309;28;3604925;-66
2024/03/08 02:43:28;;;;;;;;;49.40;34.80;;;;;8.53;59.16;100684.75;1993014;28;3608527;-66
2024/03/08 02:44:43;;;;;;;;;52.80;39.40;;;;;8.55;59.08;100690.81;1991198;28;3616886;-66
2024/03/08 02:45:55;;;;;;;;;50.00;37.67;;;;;8.54;59.22;100689.06;1972756;28;3610596;-66
2024/03/08 02:47:07;;;;;;;;;45.00;37.20;;;;;8.52;59.64;100688.25;1995929;28;3579371;-66
2024/03/08 02:48:19;;;;;;;;;50.80;41.60;;;;;8.53;59.26;100690.00;2020643;28;3605466;-66
2024/03/08 02:49:31;;;;;;;;;45.80;38.00;;;;;8.51;59.15;100681.31;1996525;28;3600209;-66
2024/03/08 02:50:44;;;;;;;;;47.60;39.20;;;;;8.51;59.29;100675.22;1995954;28;3602301;-66
2024/03/08 02:51:57;;;;;;;;;52.00;38.00;;;;;8.50;59.16;100669.09;1973694;28;2868287;-66
2024/03/08 02:53:07;;;;;;;;;50.00;37.00;;;;;8.45;59.32;100660.50;1978771;28;2860649;-66
2024/03/08 02:54:20;;;;;;;;;44.40;37.00;;;;;8.50;59.43;100663.88;1988837;28;3590841;-66
2024/03/08 02:55:35;;;;;;;;;42.00;34.33;;;;;8.50;59.44;100663.00;1972109;28;3597141;-66
2024/03/08 02:56:47;;;;;;;;;49.00;37.33;;;;;8.48;59.27;100662.19;1970419;28;3607533;-66
2024/03/08 02:57:59;;;;;;;;;45.60;37.40;;;;;8.45;59.54;100660.50;1995061;28;3597134;-66
2024/03/08 02:59:11;;;;;;;;;50.20;37.80;;;;;8.49;59.73;100666.53;1990025;28;3605427;-66
2024/03/08 03:00:24;;;;;;;;;50.33;38.00;;;;;8.48;59.83;100660.44;1990221;28;3599220;-66
2024/03/08 03:01:36;;;;;;;;;47.33;35.33;;;;;8.48;59.28;100656.94;1969765;28;3593974;-66
2024/03/08 03:02:47;;;;;;;;;41.50;34.50;;;;;8.44;59.04;100650.94;1993270;28;2857544;-66
2024/03/08 03:03:58;;;;;;;;;46.40;36.80;;;;;8.44;59.15;100654.41;1978832;28;3584657;-66
2024/03/08 03:05:11;;;;;;;;;50.33;36.00;;;;;8.44;59.50;100646.53;2010772;28;3611681;-66
2024/03/08 03:06:22;;;;;;;;;50.00;37.50;;;;;8.44;59.44;100648.31;1973814;28;2871125;-66
2024/03/08 03:07:33;;;;;;;;;49.33;37.00;;;;;8.39;59.75;100632.72;1989480;28;3614213;-66
2024/03/08 03:08:45;;;;;;;;;44.33;37.00;;;;;8.41;59.71;100632.69;1991753;28;3605490;-66
2024/03/08 03:09:57;;;;;;;;;49.60;38.40;;;;;8.39;59.29;100632.72;2016199;28;3592889;-66
2024/03/08 03:11:09;;;;;;;;;51.60;38.00;;;;;8.43;59.50;100630.88;2022078;28;3608545;-66
2024/03/08 03:12:22;;;;;;;;;49.80;38.20;;;;;8.41;59.41;100627.44;1997705;28;3598117;-66
2024/03/08 03:13:33;;;;;;;;;45.50;37.00;;;;;8.43;59.30;100631.75;1978769;28;2843980;-66
2024/03/08 03:14:45;;;;;;;;;48.20;36.20;;;;;8.42;59.52;100630.00;1978589;28;3591858;-66
2024/03/08 03:15:57;;;;;;;;;48.60;38.80;;;;;8.42;59.41;100623.94;1994506;28;3587680;-66
2024/03/08 03:17:09;;;;;;;;;52.50;40.00;;;;;8.40;59.27;100618.72;2002891;28;2859577;-66
2024/03/08 03:18:23;;;;;;;;;49.00;37.67;;;;;8.38;59.41;100619.66;1962950;28;3601745;-66
2024/03/08 03:19:35;;;;;;;;;48.50;36.00;;;;;8.39;59.62;100621.38;1964424;28;2856475;-66
2024/03/08 03:20:46;;;;;;;;;50.50;38.50;;;;;8.36;59.66;100614.47;1977321;28;2853377;-66
2024/03/08 03:21:57;;;;;;;;;39.60;33.80;;;;;8.35;60.06;100615.34;1981483;28;2867369;-66
2024/03/08 03:23:09;;;;;;;;;50.67;38.00;;;;;8.39;59.54;100618.75;2005807;28;3601230;-66
2024/03/08 03:24:21;;;;;;;;;45.33;33.00;;;;;8.35;59.89;100617.09;1977765;28;2865307;-66
2024/03/08 03:25:35;;;;;;;;;54.50;40.00;;;;;8.37;59.85;100620.56;2000634;28;2875236;-66
2024/03/08 03:26:45;;;;;;;;;43.00;37.00;;;;;8.36;59.87;100618.84;1978722;28;2835651;-66
2024/03/08 03:27:57;;;;;;;;;41.60;35.40;;;;;8.32;59.93;100612.84;1988221;28;3585597;-66
2024/03/08 03:29:11;;;;;;;;;45.00;35.86;;;;;8.27;59.51;100605.06;2016343;28;3585040;-66
2024/03/08 03:30:25;;;;;;;;;50.80;36.80;;;;;8.34;59.69;100611.03;1982776;28;3609571;-66
2024/03/08 03:31:36;;;;;;;;;50.00;39.00;;;;;8.30;59.89;100607.63;1974341;28;2857532;-66
2024/03/08 03:32:50;;;;;;;;;48.60;37.00;;;;;8.28;59.51;100604.19;1978009;28;3597066;-66
2024/03/08 03:34:03;;;;;;;;;41.50;36.00;;;;;8.30;59.95;100601.50;1977779;28;2851274;-66
2024/03/08 03:35:17;;;;;;;;;52.00;39.00;;;;;8.28;59.66;100590.22;1978099;28;2866868;-66
2024/03/08 03:36:29;;;;;;;;;48.67;39.33;;;;;8.27;59.22;100593.75;1975744;28;3608542;-66
2024/03/08 03:37:42;;;;;;;;;50.00;39.50;;;;;8.26;59.50;100592.03;1978067;28;2866895;-66
2024/03/08 03:39:04;;;;;;;;;45.50;36.00;;;;;8.23;59.66;100587.72;1973485;28;2841893;-66
2024/03/08 03:40:17;;;;;;;;;42.67;35.67;;;;;8.23;60.29;100590.34;1969437;28;3593973;-66
2024/03/08 03:41:29;;;;;;;;;39.33;31.67;;;;;8.25;60.14;100590.31;1974166;28;3597134;-66
2024/03/08 03:42:41;;;;;;;;;42.80;33.60;;;;;8.22;59.50;100597.31;2013336;28;3608919;-66
2024/03/08 03:43:53;;;;;;;;;51.60;40.20;;;;;8.23;60.08;100608.66;1989713;28;3612055;-66
2024/03/08 03:45:05;;;;;;;;;53.80;37.00;;;;;8.21;60.10;100605.22;1973917;28;2866963;-66
2024/03/08 03:46:17;;;;;;;;;49.33;39.00;;;;;8.21;59.80;100606.09;1984698;28;3599238;-66
2024/03/08 03:47:29;;;;;;;;;52.00;36.33;;;;;8.18;59.44;100600.94;1980244;28;3613761;-66
2024/03/08 03:48:42;;;;;;;;;53.20;40.20;;;;;8.17;59.72;100599.19;1994046;28;3601252;-66
2024/03/08 03:49:54;;;;;;;;;47.00;38.50;;;;;8.12;60.18;100590.63;1979012;28;2854416;-66
2024/03/08 03:51:04;;;;;;;;;51.50;39.00;;;;;8.13;59.69;100587.09;1980521;28;2869038;-66
2024/03/08 03:52:17;;;;;;;;;41.40;34.60;;;;;8.14;59.98;100587.97;1998962;28;3594979;-66
2024/03/08 03:53:28;;;;;;;;;54.60;41.20;;;;;8.08;59.75;100587.22;1967476;28;3636672;-66
2024/03/08 03:54:40;;;;;;;;;49.00;37.20;;;;;8.08;59.82;100584.59;1992546;28;3598120;-66
2024/03/08 03:55:54;;;;;;;;;50.86;38.43;;;;;8.10;60.01;100597.63;2017221;28;3608623;-66
2024/03/08 03:57:05;;;;;;;;;43.00;35.00;;;;;8.10;60.11;100600.25;1973134;28;3596049;-66
2024/03/08 03:58:22;;;;;;;;;41.00;32.00;;;;;8.08;60.14;100591.59;1994108;28;3614774;-66
2024/03/08 03:59:32;;;;;;;;;43.00;34.50;;;;;8.10;59.81;100598.50;1979246;28;2848234;-66
2024/03/08 04:00:44;;;;;;;;;42.60;34.00;;;;;8.09;60.26;100595.94;1996199;28;3606437;-66
2024/03/08 04:01:56;;;;;;;;;48.20;37.40;;;;;8.04;60.11;100587.34;2022853;28;3590816;-66
2024/03/08 04:03:08;;;;;;;;;44.20;35.20;;;;;8.07;59.89;100593.38;2021410;28;3579368;-66
2024/03/08 04:04:21;;;;;;;;;46.00;35.60;;;;;8.07;60.39;100588.13;1987352;28;3591855;-66
2024/03/08 04:05:32;;;;;;;;;45.33;34.67;;;;;8.04;60.29;100596.06;1990472;28;3597128;-66
2024/03/08 04:06:44;;;;;;;;;48.67;38.00;;;;;8.06;60.04;100590.75;1989004;28;3592270;-66
2024/03/08 04:07:56;;;;;;;;;44.33;35.00;;;;;8.07;59.94;100598.59;1998618;28;3588773;-66
2024/03/08 04:09:08;;;;;;;;;53.00;37.33;;;;;7.99;59.68;100579.59;2000446;28;3612794;-66
2024/03/08 04:10:20;;;;;;;;;42.20;35.00;;;;;8.06;60.15;100590.75;1997492;28;3577302;-66
2024/03/08 04:11:32;;;;;;;;;49.33;36.67;;;;;8.04;59.95;100593.44;2016311;28;3593993;-66
2024/03/08 04:12:45;;;;;;;;;51.20;37.80;;;;;8.02;60.10;100587.38;1992907;28;3606461;-66
2024/03/08 04:13:56;;;;;;;;;45.00;34.50;;;;;8.01;60.07;100584.78;1978529;28;2848138;-66
2024/03/08 04:15:08;;;;;;;;;47.00;36.60;;;;;7.99;60.21;100582.22;1992770;28;3607863;-66
2024/03/08 04:16:20;;;;;;;;;51.67;37.00;;;;;8.01;59.86;100583.03;1980129;28;3590864;-66
2024/03/08 04:17:31;;;;;;;;;44.00;34.33;;;;;7.99;60.04;100584.84;1984077;28;3596097;-66
2024/03/08 04:18:43;;;;;;;;;48.00;35.60;;;;;7.96;60.27;100579.66;1989048;28;3600233;-66
2024/03/08 04:19:56;;;;;;;;;51.71;38.14;;;;;7.97;60.13;100584.00;1986854;28;3584599;-66
2024/03/08 04:21:08;;;;;;;;;41.60;35.60;;;;;7.97;60.47;100581.41;1985665;28;3563742;-66
2024/03/08 04:22:20;;;;;;;;;41.60;34.80;;;;;7.99;60.48;100582.22;2014826;28;3597083;-66
2024/03/08 04:23:35;;;;;;;;;46.67;36.00;;;;;7.97;60.08;100577.03;1985866;28;3600276;-66
2024/03/08 04:24:46;;;;;;;;;46.50;35.50;;;;;7.98;60.01;100573.50;1975167;28;2850277;-66
2024/03/08 04:25:57;;;;;;;;;44.33;33.33;;;;;7.95;60.37;100575.34;1974866;28;3587041;-66
2024/03/08 04:27:10;;;;;;;;;48.20;34.80;;;;;7.90;60.14;100559.75;2019898;28;3622783;-66
2024/03/08 04:28:21;;;;;;;;;49.60;36.40;;;;;7.91;59.84;100565.81;1987609;28;3597115;-66
2024/03/08 04:29:34;;;;;;;;;43.60;35.00;;;;;7.92;59.98;100570.19;1990545;28;3592924;-66
2024/03/08 04:30:46;;;;;;;;;49.00;38.50;;;;;7.93;60.52;100577.09;1971059;28;2841884;-66
2024/03/08 04:31:57;;;;;;;;;52.00;39.00;;;;;7.88;60.56;100566.75;1978666;28;2876275;-66
2024/03/08 04:33:09;;;;;;;;;49.50;35.50;;;;;7.95;60.20;100572.72;1976068;28;2867934;-66
2024/03/08 04:34:21;;;;;;;;;47.33;35.33;;;;;7.94;59.93;100571.00;1971830;28;3604885;-66
2024/03/08 04:35:32;;;;;;;;;51.00;38.00;;;;;7.93;60.14;100564.88;1975670;28;3596151;-66
2024/03/08 04:36:44;;;;;;;;;45.40;36.20;;;;;7.93;60.30;100553.56;1995534;28;3599155;-66
2024/03/08 04:37:57;;;;;;;;;41.40;33.60;;;;;7.93;60.12;100558.78;1994757;28;3582473;-66
2024/03/08 04:39:12;;;;;;;;;42.00;34.50;;;;;7.92;60.80;100557.97;1999886;28;2850214;-66
2024/03/08 04:40:23;;;;;;;;;50.00;37.50;;;;;7.93;60.58;100557.03;1973320;28;2849223;-66
2024/03/08 04:41:35;;;;;;;;;45.00;33.80;;;;;7.94;60.16;100561.38;1986272;28;3599153;-66
2024/03/08 04:42:46;;;;;;;;;45.00;32.50;;;;;7.92;60.75;100549.25;1969969;28;2868963;-66
2024/03/08 04:43:58;;;;;;;;;41.40;35.60;;;;;7.92;60.60;100546.63;1989632;28;3594989;-66
2024/03/08 04:45:13;;;;;;;;;51.60;39.20;;;;;7.95;60.21;100554.41;1991350;28;3601589;-66
2024/03/08 04:46:24;;;;;;;;;44.50;35.00;;;;;7.92;60.45;100551.84;1967867;28;2863767;-66
2024/03/08 04:47:36;;;;;;;;;50.33;38.33;;;;;7.93;60.58;100554.44;1985390;28;3591883;-66
2024/03/08 04:48:47;;;;;;;;;50.00;39.50;;;;;7.94;60.81;100555.28;1984925;28;2845045;-66
2024/03/08 04:49:59;;;;;;;;;49.67;37.67;;;;;7.91;60.36;100553.59;2004444;28;3601269;-66
2024/03/08 04:51:11;;;;;;;;;47.40;34.60;;;;;7.92;60.14;100551.84;1981204;28;3603337;-66
2024/03/08 04:52:23;;;;;;;;;49.80;36.00;;;;;7.88;60.20;100546.69;1982946;28;3590848;-66
2024/03/08 04:53:35;;;;;;;;;50.80;37.60;;;;;7.88;60.24;100549.31;2011480;28;3605431;-66
2024/03/08 04:54:47;;;;;;;;;47.80;37.20;;;;;7.91;60.37;100544.88;1993095;28;3598136;-66
2024/03/08 04:55:59;;;;;;;;;39.67;32.67;;;;;7.86;60.47;100538.03;1985832;28;3591927;-66
2024/03/08 04:57:11;;;;;;;;;42.29;34.86;;;;;7.86;60.52;100543.25;1985151;28;3603372;-66
2024/03/08 04:58:23;;;;;;;;;51.40;38.40;;;;;7.85;60.40;100536.28;1987279;28;3590836;-66
2024/03/08 04:59:36;;;;;;;;;44.71;35.86;;;;;7.86;60.73;100538.03;1977886;28;3590872;-66
2024/03/08 05:00:49;;;;;;;;;46.80;35.60;;;;;7.88;60.04;100535.34;1986094;28;3600198;-66
2024/03/08 05:02:00;;;;;;;;;36.67;32.00;;;;;7.83;59.95;100532.84;1971354;28;3579412;-66
2024/03/08 05:03:13;;;;;;;;;49.29;38.43;;;;;7.79;60.39;100531.22;2000756;28;3603404;-66
2024/03/08 05:04:25;;;;;;;;;46.60;37.80;;;;;7.79;60.75;100528.59;1992449;28;3580402;-66
2024/03/08 05:05:37;;;;;;;;;43.67;35.00;;;;;7.78;60.31;100526.88;2000896;28;3570118;-66
2024/03/08 05:06:49;;;;;;;;;47.80;37.80;;;;;7.81;60.89;100529.41;2018275;28;3587693;-66
2024/03/08 05:08:01;;;;;;;;;48.00;37.40;;;;;7.78;60.50;100526.03;1991663;28;3597106;-66
2024/03/08 05:09:13;;;;;;;;;40.40;33.40;;;;;7.80;60.81;100527.72;1991534;28;3622086;-66
2024/03/08 05:10:24;;;;;;;;;47.40;36.40;;;;;7.79;60.54;100526.00;1966135;28;2864825;-66
2024/03/08 05:11:36;;;;;;;;;42.40;33.60;;;;;7.80;60.95;100525.09;2003671;28;3598116;-66
2024/03/08 05:12:48;;;;;;;;;49.00;38.60;;;;;7.79;60.77;100526.00;1997826;28;3586643;-66
2024/03/08 05:14:00;;;;;;;;;44.00;35.80;;;;;7.75;60.45;100524.34;1996101;28;3584562;-66
2024/03/08 05:15:12;;;;;;;;;40.00;33.67;;;;;7.76;60.69;100520.81;2008970;28;3585676;-66
2024/03/08 05:16:24;;;;;;;;;50.60;37.80;;;;;7.73;60.46;100511.28;2013044;28;3597088;-66
2024/03/08 05:17:36;;;;;;;;;37.80;30.60;;;;;7.76;60.79;100520.81;1980672;28;3603305;-66
2024/03/08 05:18:48;;;;;;;;;51.00;38.33;;;;;7.75;60.73;100519.13;1965880;28;3597102;-66
2024/03/08 05:20:00;;;;;;;;;48.20;38.20;;;;;7.71;60.21;100515.72;1995583;28;3584028;-66
2024/03/08 05:21:12;;;;;;;;;46.80;36.60;;;;;7.71;60.93;100517.47;2008636;28;3604371;-66
2024/03/08 05:22:25;;;;;;;;;51.43;39.86;;;;;7.69;60.68;100508.78;1977767;28;3597145;-66
2024/03/08 05:23:38;;;;;;;;;48.67;35.00;;;;;7.67;60.81;100511.47;1961345;28;3604394;-66